sensor_id;sensor_type;location;lat;lon;timestamp;P1;durP1;ratioP1;P2;durP2;ratioP2
41817;SDS011;27493;51.730;5.294;2023-05-16T00:02:01;17.13;;;3.73;;
41817;SDS011;27493;51.730;5.294;2023-05-16T00:04:27;16.60;;;3.00;;
41817;SDS011;27493;51.730;5.294;2023-05-16T00:06:53;18.20;;;3.53;;
41817;SDS011;27493;51.730;5.294;2023-05-16T00:09:18;12.20;;;3.50;;
41817;SDS011;27493;51.730;5.294;2023-05-16T00:11:44;16.90;;;4.00;;
41817;SDS011;27493;51.730;5.294;2023-05-16T00:14:10;11.60;;;3.30;;
41817;SDS011;27493;51.730;5.294;2023-05-16T00:16:36;12.40;;;2.97;;
41817;SDS011;27493;51.730;5.294;2023-05-16T00:19:01;13.87;;;3.43;;
41817;SDS011;27493;51.730;5.294;2023-05-16T00:21:26;13.30;;;3.20;;
41817;SDS011;27493;51.730;5.294;2023-05-16T00:23:52;12.77;;;3.30;;
41817;SDS011;27493;51.730;5.294;2023-05-16T00:26:17;15.30;;;3.23;;
41817;SDS011;27493;51.730;5.294;2023-05-16T00:28:43;17.97;;;3.33;;
41817;SDS011;27493;51.730;5.294;2023-05-16T00:31:08;14.17;;;3.73;;
41817;SDS011;27493;51.730;5.294;2023-05-16T00:33:33;8.23;;;2.73;;
41817;SDS011;27493;51.730;5.294;2023-05-16T00:35:58;14.83;;;3.03;;
41817;SDS011;27493;51.730;5.294;2023-05-16T00:38:24;11.03;;;3.07;;
41817;SDS011;27493;51.730;5.294;2023-05-16T00:40:49;12.77;;;3.10;;
41817;SDS011;27493;51.730;5.294;2023-05-16T00:43:14;17.20;;;3.10;;
41817;SDS011;27493;51.730;5.294;2023-05-16T00:45:39;13.20;;;2.80;;
41817;SDS011;27493;51.730;5.294;2023-05-16T00:48:04;9.47;;;2.40;;
41817;SDS011;27493;51.730;5.294;2023-05-16T00:50:31;11.30;;;2.90;;
41817;SDS011;27493;51.730;5.294;2023-05-16T00:52:57;12.47;;;3.00;;
41817;SDS011;27493;51.730;5.294;2023-05-16T00:55:22;16.77;;;3.47;;
41817;SDS011;27493;51.730;5.294;2023-05-16T00:57:47;9.47;;;2.60;;
41817;SDS011;27493;51.730;5.294;2023-05-16T01:00:13;12.73;;;3.20;;
41817;SDS011;27493;51.730;5.294;2023-05-16T01:02:41;9.83;;;2.80;;
41817;SDS011;27493;51.730;5.294;2023-05-16T01:05:07;20.33;;;3.43;;
41817;SDS011;27493;51.730;5.294;2023-05-16T01:07:32;13.93;;;2.87;;
41817;SDS011;27493;51.730;5.294;2023-05-16T01:09:58;10.37;;;2.40;;
41817;SDS011;27493;51.730;5.294;2023-05-16T01:15:07;15.77;;;3.00;;
41817;SDS011;27493;51.730;5.294;2023-05-16T01:20:02;16.70;;;3.28;;
41817;SDS011;27493;51.730;5.294;2023-05-16T01:22:37;13.97;;;3.00;;
41817;SDS011;27493;51.730;5.294;2023-05-16T01:27:37;13.10;;;2.63;;
41817;SDS011;27493;51.730;5.294;2023-05-16T01:30:13;11.20;;;3.50;;
41817;SDS011;27493;51.730;5.294;2023-05-16T01:32:38;10.57;;;2.70;;
41817;SDS011;27493;51.730;5.294;2023-05-16T01:35:04;16.93;;;3.37;;
41817;SDS011;27493;51.730;5.294;2023-05-16T01:37:32;16.97;;;3.00;;
41817;SDS011;27493;51.730;5.294;2023-05-16T01:40:02;8.43;;;2.70;;
41817;SDS011;27493;51.730;5.294;2023-05-16T01:42:32;13.90;;;2.80;;
41817;SDS011;27493;51.730;5.294;2023-05-16T01:44:59;9.20;;;2.93;;
41817;SDS011;27493;51.730;5.294;2023-05-16T01:47:26;12.10;;;3.20;;
41817;SDS011;27493;51.730;5.294;2023-05-16T01:50:03;16.73;;;3.30;;
41817;SDS011;27493;51.730;5.294;2023-05-16T01:52:37;11.33;;;3.10;;
41817;SDS011;27493;51.730;5.294;2023-05-16T01:55:04;16.47;;;3.30;;
41817;SDS011;27493;51.730;5.294;2023-05-16T01:57:31;13.20;;;2.83;;
41817;SDS011;27493;51.730;5.294;2023-05-16T01:59:57;18.23;;;3.83;;
41817;SDS011;27493;51.730;5.294;2023-05-16T02:02:22;14.37;;;2.90;;
41817;SDS011;27493;51.730;5.294;2023-05-16T02:04:48;12.50;;;3.37;;
41817;SDS011;27493;51.730;5.294;2023-05-16T02:07:13;15.83;;;4.20;;
41817;SDS011;27493;51.730;5.294;2023-05-16T02:09:39;16.73;;;3.73;;
41817;SDS011;27493;51.730;5.294;2023-05-16T02:12:04;14.10;;;2.70;;
41817;SDS011;27493;51.730;5.294;2023-05-16T02:14:29;12.47;;;2.83;;
41817;SDS011;27493;51.730;5.294;2023-05-16T02:16:54;12.90;;;2.77;;
41817;SDS011;27493;51.730;5.294;2023-05-16T02:19:19;9.93;;;2.60;;
41817;SDS011;27493;51.730;5.294;2023-05-16T02:21:45;13.27;;;3.03;;
41817;SDS011;27493;51.730;5.294;2023-05-16T02:24:10;13.93;;;3.10;;
41817;SDS011;27493;51.730;5.294;2023-05-16T02:26:35;10.37;;;2.87;;
41817;SDS011;27493;51.730;5.294;2023-05-16T02:29:00;10.10;;;2.70;;
41817;SDS011;27493;51.730;5.294;2023-05-16T02:31:26;15.43;;;2.83;;
41817;SDS011;27493;51.730;5.294;2023-05-16T02:33:52;10.90;;;2.87;;
41817;SDS011;27493;51.730;5.294;2023-05-16T02:36:17;12.80;;;3.10;;
41817;SDS011;27493;51.730;5.294;2023-05-16T02:38:42;15.97;;;3.30;;
41817;SDS011;27493;51.730;5.294;2023-05-16T02:41:07;11.57;;;2.80;;
41817;SDS011;27493;51.730;5.294;2023-05-16T02:43:33;16.10;;;3.53;;
41817;SDS011;27493;51.730;5.294;2023-05-16T02:45:58;11.23;;;2.47;;
41817;SDS011;27493;51.730;5.294;2023-05-16T02:48:23;15.03;;;2.80;;
41817;SDS011;27493;51.730;5.294;2023-05-16T02:50:48;12.07;;;2.80;;
41817;SDS011;27493;51.730;5.294;2023-05-16T02:53:13;12.63;;;3.17;;
41817;SDS011;27493;51.730;5.294;2023-05-16T02:55:39;11.60;;;3.10;;
41817;SDS011;27493;51.730;5.294;2023-05-16T02:58:04;14.07;;;3.03;;
41817;SDS011;27493;51.730;5.294;2023-05-16T03:00:29;11.90;;;3.10;;
41817;SDS011;27493;51.730;5.294;2023-05-16T03:02:54;13.60;;;3.40;;
41817;SDS011;27493;51.730;5.294;2023-05-16T03:05:20;16.33;;;3.63;;
41817;SDS011;27493;51.730;5.294;2023-05-16T03:07:45;16.97;;;3.37;;
41817;SDS011;27493;51.730;5.294;2023-05-16T03:10:10;11.57;;;2.93;;
41817;SDS011;27493;51.730;5.294;2023-05-16T03:12:35;14.67;;;3.70;;
41817;SDS011;27493;51.730;5.294;2023-05-16T03:15:00;11.10;;;3.07;;
41817;SDS011;27493;51.730;5.294;2023-05-16T03:17:26;16.63;;;4.00;;
41817;SDS011;27493;51.730;5.294;2023-05-16T03:19:51;19.70;;;3.97;;
41817;SDS011;27493;51.730;5.294;2023-05-16T03:22:16;18.83;;;4.20;;
41817;SDS011;27493;51.730;5.294;2023-05-16T03:24:41;15.23;;;3.77;;
41817;SDS011;27493;51.730;5.294;2023-05-16T03:27:07;14.70;;;3.50;;
41817;SDS011;27493;51.730;5.294;2023-05-16T03:29:32;16.73;;;3.37;;
41817;SDS011;27493;51.730;5.294;2023-05-16T03:31:57;15.23;;;3.30;;
41817;SDS011;27493;51.730;5.294;2023-05-16T03:34:22;11.90;;;3.00;;
41817;SDS011;27493;51.730;5.294;2023-05-16T03:36:48;11.20;;;3.20;;
41817;SDS011;27493;51.730;5.294;2023-05-16T03:39:14;11.60;;;3.30;;
41817;SDS011;27493;51.730;5.294;2023-05-16T03:41:40;10.10;;;3.20;;
41817;SDS011;27493;51.730;5.294;2023-05-16T03:44:05;11.47;;;3.70;;
41817;SDS011;27493;51.730;5.294;2023-05-16T03:46:30;13.80;;;3.80;;
41817;SDS011;27493;51.730;5.294;2023-05-16T03:48:55;13.83;;;3.20;;
41817;SDS011;27493;51.730;5.294;2023-05-16T03:51:20;17.70;;;3.20;;
41817;SDS011;27493;51.730;5.294;2023-05-16T03:53:46;12.50;;;3.07;;
41817;SDS011;27493;51.730;5.294;2023-05-16T03:56:11;15.57;;;3.97;;
41817;SDS011;27493;51.730;5.294;2023-05-16T03:58:36;13.27;;;3.37;;
41817;SDS011;27493;51.730;5.294;2023-05-16T04:01:01;13.03;;;3.50;;
41817;SDS011;27493;51.730;5.294;2023-05-16T04:03:27;11.97;;;2.97;;
41817;SDS011;27493;51.730;5.294;2023-05-16T04:05:54;11.30;;;3.03;;
41817;SDS011;27493;51.730;5.294;2023-05-16T04:08:20;7.43;;;3.10;;
41817;SDS011;27493;51.730;5.294;2023-05-16T04:10:45;15.33;;;3.30;;
41817;SDS011;27493;51.730;5.294;2023-05-16T04:13:10;16.83;;;3.73;;
41817;SDS011;27493;51.730;5.294;2023-05-16T04:15:35;22.07;;;4.03;;
41817;SDS011;27493;51.730;5.294;2023-05-16T04:18:01;13.27;;;3.63;;
41817;SDS011;27493;51.730;5.294;2023-05-16T04:20:26;12.90;;;3.70;;
41817;SDS011;27493;51.730;5.294;2023-05-16T04:22:51;12.90;;;4.23;;
41817;SDS011;27493;51.730;5.294;2023-05-16T04:25:16;16.67;;;3.20;;
41817;SDS011;27493;51.730;5.294;2023-05-16T04:27:41;11.80;;;3.60;;
41817;SDS011;27493;51.730;5.294;2023-05-16T04:30:07;8.80;;;3.30;;
41817;SDS011;27493;51.730;5.294;2023-05-16T04:32:33;16.20;;;3.43;;
41817;SDS011;27493;51.730;5.294;2023-05-16T04:35:00;9.53;;;3.37;;
41817;SDS011;27493;51.730;5.294;2023-05-16T04:37:25;10.90;;;3.87;;
41817;SDS011;27493;51.730;5.294;2023-05-16T04:39:51;9.73;;;3.33;;
41817;SDS011;27493;51.730;5.294;2023-05-16T04:42:18;13.37;;;3.90;;
41817;SDS011;27493;51.730;5.294;2023-05-16T04:44:43;11.63;;;3.50;;
41817;SDS011;27493;51.730;5.294;2023-05-16T04:47:08;12.60;;;3.80;;
41817;SDS011;27493;51.730;5.294;2023-05-16T04:49:34;12.10;;;3.10;;
41817;SDS011;27493;51.730;5.294;2023-05-16T04:51:59;12.93;;;3.00;;
41817;SDS011;27493;51.730;5.294;2023-05-16T04:54:24;12.00;;;2.90;;
41817;SDS011;27493;51.730;5.294;2023-05-16T04:56:50;12.27;;;3.20;;
41817;SDS011;27493;51.730;5.294;2023-05-16T04:59:15;23.90;;;4.23;;
41817;SDS011;27493;51.730;5.294;2023-05-16T05:01:40;12.87;;;3.30;;
41817;SDS011;27493;51.730;5.294;2023-05-16T05:04:06;11.07;;;3.10;;
41817;SDS011;27493;51.730;5.294;2023-05-16T05:06:31;15.70;;;3.53;;
41817;SDS011;27493;51.730;5.294;2023-05-16T05:08:56;14.27;;;3.70;;
41817;SDS011;27493;51.730;5.294;2023-05-16T05:11:21;13.27;;;3.60;;
41817;SDS011;27493;51.730;5.294;2023-05-16T05:13:47;13.17;;;2.77;;
41817;SDS011;27493;51.730;5.294;2023-05-16T05:16:12;9.67;;;3.40;;
41817;SDS011;27493;51.730;5.294;2023-05-16T05:18:37;11.50;;;3.50;;
41817;SDS011;27493;51.730;5.294;2023-05-16T05:21:02;16.27;;;4.13;;
41817;SDS011;27493;51.730;5.294;2023-05-16T05:23:28;20.00;;;3.57;;
41817;SDS011;27493;51.730;5.294;2023-05-16T05:25:54;11.80;;;3.13;;
41817;SDS011;27493;51.730;5.294;2023-05-16T05:28:19;15.60;;;3.97;;
41817;SDS011;27493;51.730;5.294;2023-05-16T05:30:44;12.17;;;3.23;;
41817;SDS011;27493;51.730;5.294;2023-05-16T05:33:12;10.03;;;3.27;;
41817;SDS011;27493;51.730;5.294;2023-05-16T05:35:38;12.77;;;3.57;;
41817;SDS011;27493;51.730;5.294;2023-05-16T05:38:03;8.30;;;2.63;;
41817;SDS011;27493;51.730;5.294;2023-05-16T05:40:28;11.63;;;2.90;;
41817;SDS011;27493;51.730;5.294;2023-05-16T05:42:53;12.80;;;3.20;;
41817;SDS011;27493;51.730;5.294;2023-05-16T05:45:18;7.13;;;2.70;;
41817;SDS011;27493;51.730;5.294;2023-05-16T05:47:44;10.97;;;2.83;;
41817;SDS011;27493;51.730;5.294;2023-05-16T05:50:09;10.97;;;3.27;;
41817;SDS011;27493;51.730;5.294;2023-05-16T05:52:38;12.40;;;3.10;;
41817;SDS011;27493;51.730;5.294;2023-05-16T05:55:04;7.03;;;2.50;;
41817;SDS011;27493;51.730;5.294;2023-05-16T05:57:29;13.13;;;2.97;;
41817;SDS011;27493;51.730;5.294;2023-05-16T05:59:54;18.87;;;3.07;;
41817;SDS011;27493;51.730;5.294;2023-05-16T06:02:20;12.93;;;2.83;;
41817;SDS011;27493;51.730;5.294;2023-05-16T06:04:45;7.97;;;2.67;;
41817;SDS011;27493;51.730;5.294;2023-05-16T06:07:10;10.87;;;2.63;;
41817;SDS011;27493;51.730;5.294;2023-05-16T06:09:35;15.77;;;3.83;;
41817;SDS011;27493;51.730;5.294;2023-05-16T06:12:00;11.07;;;2.80;;
41817;SDS011;27493;51.730;5.294;2023-05-16T06:14:26;10.63;;;2.50;;
41817;SDS011;27493;51.730;5.294;2023-05-16T06:16:51;11.47;;;2.70;;
41817;SDS011;27493;51.730;5.294;2023-05-16T06:19:16;9.67;;;2.57;;
41817;SDS011;27493;51.730;5.294;2023-05-16T06:21:42;10.83;;;2.40;;
41817;SDS011;27493;51.730;5.294;2023-05-16T06:24:07;11.90;;;2.90;;
41817;SDS011;27493;51.730;5.294;2023-05-16T06:26:32;8.80;;;2.30;;
41817;SDS011;27493;51.730;5.294;2023-05-16T06:28:57;9.00;;;2.10;;
41817;SDS011;27493;51.730;5.294;2023-05-16T06:31:22;10.03;;;2.87;;
41817;SDS011;27493;51.730;5.294;2023-05-16T06:33:48;10.97;;;2.20;;
41817;SDS011;27493;51.730;5.294;2023-05-16T06:36:13;8.57;;;2.30;;
41817;SDS011;27493;51.730;5.294;2023-05-16T06:38:38;10.30;;;2.80;;
41817;SDS011;27493;51.730;5.294;2023-05-16T06:41:03;13.70;;;2.23;;
41817;SDS011;27493;51.730;5.294;2023-05-16T06:43:29;10.30;;;2.23;;
41817;SDS011;27493;51.730;5.294;2023-05-16T06:45:54;11.07;;;2.40;;
41817;SDS011;27493;51.730;5.294;2023-05-16T06:48:19;11.97;;;2.17;;
41817;SDS011;27493;51.730;5.294;2023-05-16T06:50:48;11.10;;;2.33;;
41817;SDS011;27493;51.730;5.294;2023-05-16T06:53:13;13.60;;;2.20;;
41817;SDS011;27493;51.730;5.294;2023-05-16T06:55:38;9.93;;;2.37;;
41817;SDS011;27493;51.730;5.294;2023-05-16T06:58:03;12.57;;;2.57;;
41817;SDS011;27493;51.730;5.294;2023-05-16T07:00:29;3.97;;;2.00;;
41817;SDS011;27493;51.730;5.294;2023-05-16T07:02:54;7.57;;;2.23;;
41817;SDS011;27493;51.730;5.294;2023-05-16T07:05:19;7.03;;;1.77;;
41817;SDS011;27493;51.730;5.294;2023-05-16T07:07:44;7.50;;;2.03;;
41817;SDS011;27493;51.730;5.294;2023-05-16T07:10:10;6.53;;;2.03;;
41817;SDS011;27493;51.730;5.294;2023-05-16T07:12:35;14.77;;;2.43;;
41817;SDS011;27493;51.730;5.294;2023-05-16T07:15:02;9.17;;;2.20;;
41817;SDS011;27493;51.730;5.294;2023-05-16T07:17:27;6.57;;;2.20;;
41817;SDS011;27493;51.730;5.294;2023-05-16T07:19:53;8.00;;;2.67;;
41817;SDS011;27493;51.730;5.294;2023-05-16T07:22:18;11.03;;;2.13;;
41817;SDS011;27493;51.730;5.294;2023-05-16T07:24:43;7.60;;;2.10;;
41817;SDS011;27493;51.730;5.294;2023-05-16T07:27:08;7.57;;;2.13;;
41817;SDS011;27493;51.730;5.294;2023-05-16T07:29:34;7.50;;;2.20;;
41817;SDS011;27493;51.730;5.294;2023-05-16T07:32:01;6.57;;;1.70;;
41817;SDS011;27493;51.730;5.294;2023-05-16T07:34:26;7.00;;;1.70;;
41817;SDS011;27493;51.730;5.294;2023-05-16T07:36:51;5.30;;;1.63;;
41817;SDS011;27493;51.730;5.294;2023-05-16T07:39:16;10.60;;;1.93;;
41817;SDS011;27493;51.730;5.294;2023-05-16T07:41:42;6.57;;;2.00;;
41817;SDS011;27493;51.730;5.294;2023-05-16T07:44:07;9.03;;;1.83;;
41817;SDS011;27493;51.730;5.294;2023-05-16T07:46:32;5.47;;;1.60;;
41817;SDS011;27493;51.730;5.294;2023-05-16T07:48:57;4.67;;;1.70;;
41817;SDS011;27493;51.730;5.294;2023-05-16T07:51:22;7.37;;;2.00;;
41817;SDS011;27493;51.730;5.294;2023-05-16T07:53:48;6.43;;;2.10;;
41817;SDS011;27493;51.730;5.294;2023-05-16T07:56:13;5.53;;;1.40;;
41817;SDS011;27493;51.730;5.294;2023-05-16T07:58:38;4.83;;;1.60;;
41817;SDS011;27493;51.730;5.294;2023-05-16T08:01:03;7.10;;;2.00;;
41817;SDS011;27493;51.730;5.294;2023-05-16T08:03:29;10.07;;;2.10;;
41817;SDS011;27493;51.730;5.294;2023-05-16T08:05:54;5.80;;;1.43;;
41817;SDS011;27493;51.730;5.294;2023-05-16T08:08:19;8.10;;;1.97;;
41817;SDS011;27493;51.730;5.294;2023-05-16T08:10:45;3.93;;;1.60;;
41817;SDS011;27493;51.730;5.294;2023-05-16T08:13:11;7.03;;;1.60;;
41817;SDS011;27493;51.730;5.294;2023-05-16T08:15:36;6.40;;;1.47;;
41817;SDS011;27493;51.730;5.294;2023-05-16T08:18:01;4.43;;;1.60;;
41817;SDS011;27493;51.730;5.294;2023-05-16T08:20:26;7.37;;;2.20;;
41817;SDS011;27493;51.730;5.294;2023-05-16T08:22:52;6.73;;;1.87;;
41817;SDS011;27493;51.730;5.294;2023-05-16T08:25:17;5.43;;;1.90;;
41817;SDS011;27493;51.730;5.294;2023-05-16T08:27:45;6.70;;;1.60;;
41817;SDS011;27493;51.730;5.294;2023-05-16T08:30:11;7.43;;;1.87;;
41817;SDS011;27493;51.730;5.294;2023-05-16T08:32:37;7.03;;;1.93;;
41817;SDS011;27493;51.730;5.294;2023-05-16T08:35:02;5.80;;;2.10;;
41817;SDS011;27493;51.730;5.294;2023-05-16T08:37:27;6.83;;;2.03;;
41817;SDS011;27493;51.730;5.294;2023-05-16T08:39:52;5.90;;;1.70;;
41817;SDS011;27493;51.730;5.294;2023-05-16T08:42:18;4.43;;;1.40;;
41817;SDS011;27493;51.730;5.294;2023-05-16T08:44:43;4.50;;;1.63;;
41817;SDS011;27493;51.730;5.294;2023-05-16T08:47:12;6.87;;;1.70;;
41817;SDS011;27493;51.730;5.294;2023-05-16T08:49:40;4.87;;;1.93;;
41817;SDS011;27493;51.730;5.294;2023-05-16T08:52:08;14.70;;;2.30;;
41817;SDS011;27493;51.730;5.294;2023-05-16T08:54:33;7.13;;;1.57;;
41817;SDS011;27493;51.730;5.294;2023-05-16T08:56:59;3.93;;;2.00;;
41817;SDS011;27493;51.730;5.294;2023-05-16T08:59:24;6.63;;;1.67;;
41817;SDS011;27493;51.730;5.294;2023-05-16T09:01:49;8.60;;;1.47;;
41817;SDS011;27493;51.730;5.294;2023-05-16T09:04:15;6.50;;;1.93;;
41817;SDS011;27493;51.730;5.294;2023-05-16T09:06:40;5.17;;;1.87;;
41817;SDS011;27493;51.730;5.294;2023-05-16T09:09:05;3.10;;;1.40;;
41817;SDS011;27493;51.730;5.294;2023-05-16T09:11:32;7.10;;;1.67;;
41817;SDS011;27493;51.730;5.294;2023-05-16T09:13:57;5.73;;;1.80;;
41817;SDS011;27493;51.730;5.294;2023-05-16T09:16:22;6.40;;;1.97;;
41817;SDS011;27493;51.730;5.294;2023-05-16T09:18:54;4.03;;;1.43;;
41817;SDS011;27493;51.730;5.294;2023-05-16T09:21:21;5.60;;;1.50;;
41817;SDS011;27493;51.730;5.294;2023-05-16T09:23:49;5.63;;;2.10;;
41817;SDS011;27493;51.730;5.294;2023-05-16T09:26:15;5.50;;;1.70;;
41817;SDS011;27493;51.730;5.294;2023-05-16T09:28:40;3.97;;;1.43;;
41817;SDS011;27493;51.730;5.294;2023-05-16T09:31:22;4.10;;;1.57;;
41817;SDS011;27493;51.730;5.294;2023-05-16T09:33:50;5.53;;;1.60;;
41817;SDS011;27493;51.730;5.294;2023-05-16T09:36:15;5.67;;;1.60;;
41817;SDS011;27493;51.730;5.294;2023-05-16T09:38:40;6.30;;;1.90;;
41817;SDS011;27493;51.730;5.294;2023-05-16T09:41:07;4.53;;;1.50;;
41817;SDS011;27493;51.730;5.294;2023-05-16T09:43:33;4.53;;;1.80;;
41817;SDS011;27493;51.730;5.294;2023-05-16T09:46:01;5.23;;;1.57;;
41817;SDS011;27493;51.730;5.294;2023-05-16T09:48:27;4.37;;;1.80;;
41817;SDS011;27493;51.730;5.294;2023-05-16T09:50:52;6.83;;;1.70;;
41817;SDS011;27493;51.730;5.294;2023-05-16T09:53:27;3.80;;;1.70;;
41817;SDS011;27493;51.730;5.294;2023-05-16T09:56:03;4.57;;;1.40;;
41817;SDS011;27493;51.730;5.294;2023-05-16T09:58:29;6.53;;;1.43;;
41817;SDS011;27493;51.730;5.294;2023-05-16T10:00:55;5.53;;;1.70;;
41817;SDS011;27493;51.730;5.294;2023-05-16T10:03:21;6.27;;;1.77;;
41817;SDS011;27493;51.730;5.294;2023-05-16T10:05:47;6.23;;;1.53;;
41817;SDS011;27493;51.730;5.294;2023-05-16T10:08:12;4.37;;;1.40;;
41817;SDS011;27493;51.730;5.294;2023-05-16T10:10:37;7.60;;;1.90;;
41817;SDS011;27493;51.730;5.294;2023-05-16T10:13:03;2.20;;;1.30;;
41817;SDS011;27493;51.730;5.294;2023-05-16T10:15:29;3.63;;;1.60;;
41817;SDS011;27493;51.730;5.294;2023-05-16T10:17:55;5.90;;;1.53;;
41817;SDS011;27493;51.730;5.294;2023-05-16T10:20:21;6.70;;;1.70;;
41817;SDS011;27493;51.730;5.294;2023-05-16T10:22:47;2.43;;;1.53;;
41817;SDS011;27493;51.730;5.294;2023-05-16T10:25:22;5.90;;;1.63;;
41817;SDS011;27493;51.730;5.294;2023-05-16T10:27:49;3.97;;;1.70;;
41817;SDS011;27493;51.730;5.294;2023-05-16T10:30:14;6.33;;;1.67;;
41817;SDS011;27493;51.730;5.294;2023-05-16T10:32:41;3.17;;;1.60;;
41817;SDS011;27493;51.730;5.294;2023-05-16T10:35:07;7.13;;;2.27;;
41817;SDS011;27493;51.730;5.294;2023-05-16T10:37:33;5.80;;;1.40;;
41817;SDS011;27493;51.730;5.294;2023-05-16T10:39:58;5.70;;;1.53;;
41817;SDS011;27493;51.730;5.294;2023-05-16T10:42:24;6.67;;;1.63;;
41817;SDS011;27493;51.730;5.294;2023-05-16T10:44:52;5.10;;;1.60;;
41817;SDS011;27493;51.730;5.294;2023-05-16T10:47:18;2.97;;;1.40;;
41817;SDS011;27493;51.730;5.294;2023-05-16T10:49:43;6.27;;;2.03;;
41817;SDS011;27493;51.730;5.294;2023-05-16T10:52:09;7.20;;;1.90;;
41817;SDS011;27493;51.730;5.294;2023-05-16T10:54:39;5.47;;;1.60;;
41817;SDS011;27493;51.730;5.294;2023-05-16T10:57:05;8.27;;;1.90;;
41817;SDS011;27493;51.730;5.294;2023-05-16T10:59:39;7.10;;;1.70;;
41817;SDS011;27493;51.730;5.294;2023-05-16T11:02:06;3.43;;;1.60;;
41817;SDS011;27493;51.730;5.294;2023-05-16T11:04:45;4.03;;;1.40;;
41817;SDS011;27493;51.730;5.294;2023-05-16T11:07:12;4.17;;;1.40;;
41817;SDS011;27493;51.730;5.294;2023-05-16T11:09:40;6.07;;;2.00;;
41817;SDS011;27493;51.730;5.294;2023-05-16T11:12:08;7.27;;;1.50;;
41817;SDS011;27493;51.730;5.294;2023-05-16T11:16:59;5.87;;;1.47;;
41817;SDS011;27493;51.730;5.294;2023-05-16T11:22:03;3.47;;;1.50;;
41817;SDS011;27493;51.730;5.294;2023-05-16T11:24:29;6.40;;;1.67;;
41817;SDS011;27493;51.730;5.294;2023-05-16T11:26:54;4.77;;;1.57;;
41817;SDS011;27493;51.730;5.294;2023-05-16T11:29:19;6.73;;;1.90;;
41817;SDS011;27493;51.730;5.294;2023-05-16T11:31:46;6.30;;;1.93;;
41817;SDS011;27493;51.730;5.294;2023-05-16T11:34:11;3.97;;;1.53;;
41817;SDS011;27493;51.730;5.294;2023-05-16T11:36:37;5.80;;;1.40;;
41817;SDS011;27493;51.730;5.294;2023-05-16T11:39:05;5.67;;;1.90;;
41817;SDS011;27493;51.730;5.294;2023-05-16T11:41:30;7.07;;;1.60;;
41817;SDS011;27493;51.730;5.294;2023-05-16T11:43:56;3.00;;;1.40;;
41817;SDS011;27493;51.730;5.294;2023-05-16T11:46:21;4.40;;;1.47;;
41817;SDS011;27493;51.730;5.294;2023-05-16T11:48:47;3.43;;;1.47;;
41817;SDS011;27493;51.730;5.294;2023-05-16T11:51:12;4.73;;;1.70;;
41817;SDS011;27493;51.730;5.294;2023-05-16T11:53:42;3.07;;;1.63;;
41817;SDS011;27493;51.730;5.294;2023-05-16T11:56:08;6.00;;;1.63;;
41817;SDS011;27493;51.730;5.294;2023-05-16T11:58:33;5.13;;;1.67;;
41817;SDS011;27493;51.730;5.294;2023-05-16T12:00:59;4.70;;;1.40;;
41817;SDS011;27493;51.730;5.294;2023-05-16T12:03:24;6.70;;;1.60;;
41817;SDS011;27493;51.730;5.294;2023-05-16T12:05:50;4.70;;;1.60;;
41817;SDS011;27493;51.730;5.294;2023-05-16T12:08:17;3.93;;;1.50;;
41817;SDS011;27493;51.730;5.294;2023-05-16T12:10:42;3.87;;;1.50;;
41817;SDS011;27493;51.730;5.294;2023-05-16T12:13:07;5.50;;;1.30;;
41817;SDS011;27493;51.730;5.294;2023-05-16T12:15:32;5.43;;;1.50;;
41817;SDS011;27493;51.730;5.294;2023-05-16T12:17:58;3.87;;;1.60;;
41817;SDS011;27493;51.730;5.294;2023-05-16T12:20:23;5.13;;;1.97;;
41817;SDS011;27493;51.730;5.294;2023-05-16T12:22:49;8.33;;;1.97;;
41817;SDS011;27493;51.730;5.294;2023-05-16T12:27:44;7.03;;;1.40;;
41817;SDS011;27493;51.730;5.294;2023-05-16T12:30:10;5.20;;;1.33;;
41817;SDS011;27493;51.730;5.294;2023-05-16T12:32:36;6.97;;;1.40;;
41817;SDS011;27493;51.730;5.294;2023-05-16T12:35:01;3.17;;;1.43;;
41817;SDS011;27493;51.730;5.294;2023-05-16T12:37:26;4.33;;;1.50;;
41817;SDS011;27493;51.730;5.294;2023-05-16T12:39:58;6.47;;;1.60;;
41817;SDS011;27493;51.730;5.294;2023-05-16T12:42:25;3.23;;;1.50;;
41817;SDS011;27493;51.730;5.294;2023-05-16T12:44:53;8.37;;;1.77;;
41817;SDS011;27493;51.730;5.294;2023-05-16T12:47:19;7.03;;;1.60;;
41817;SDS011;27493;51.730;5.294;2023-05-16T12:49:45;6.13;;;1.80;;
41817;SDS011;27493;51.730;5.294;2023-05-16T12:52:17;6.03;;;1.60;;
41817;SDS011;27493;51.730;5.294;2023-05-16T12:54:44;7.47;;;1.77;;
41817;SDS011;27493;51.730;5.294;2023-05-16T12:57:09;6.20;;;1.80;;
41817;SDS011;27493;51.730;5.294;2023-05-16T12:59:35;3.97;;;1.50;;
41817;SDS011;27493;51.730;5.294;2023-05-16T13:02:00;5.17;;;1.60;;
41817;SDS011;27493;51.730;5.294;2023-05-16T13:04:26;3.50;;;1.80;;
41817;SDS011;27493;51.730;5.294;2023-05-16T13:06:51;4.70;;;1.60;;
41817;SDS011;27493;51.730;5.294;2023-05-16T13:09:17;6.93;;;1.80;;
41817;SDS011;27493;51.730;5.294;2023-05-16T13:11:42;6.07;;;1.67;;
41817;SDS011;27493;51.730;5.294;2023-05-16T13:14:07;5.13;;;1.63;;
41817;SDS011;27493;51.730;5.294;2023-05-16T13:16:32;3.93;;;1.80;;
41817;SDS011;27493;51.730;5.294;2023-05-16T13:18:57;5.77;;;1.70;;
41817;SDS011;27493;51.730;5.294;2023-05-16T13:21:23;6.43;;;1.60;;
41817;SDS011;27493;51.730;5.294;2023-05-16T13:23:48;6.03;;;1.80;;
41817;SDS011;27493;51.730;5.294;2023-05-16T13:26:14;4.53;;;1.50;;
41817;SDS011;27493;51.730;5.294;2023-05-16T13:28:39;7.13;;;2.00;;
41817;SDS011;27493;51.730;5.294;2023-05-16T13:31:04;9.23;;;1.83;;
41817;SDS011;27493;51.730;5.294;2023-05-16T13:33:29;5.67;;;1.33;;
41817;SDS011;27493;51.730;5.294;2023-05-16T13:35:55;5.77;;;1.80;;
41817;SDS011;27493;51.730;5.294;2023-05-16T13:38:20;5.20;;;1.60;;
41817;SDS011;27493;51.730;5.294;2023-05-16T13:40:46;4.70;;;1.30;;
41817;SDS011;27493;51.730;5.294;2023-05-16T13:43:11;5.03;;;1.37;;
41817;SDS011;27493;51.730;5.294;2023-05-16T13:45:38;5.20;;;1.63;;
41817;SDS011;27493;51.730;5.294;2023-05-16T13:48:03;3.83;;;1.60;;
41817;SDS011;27493;51.730;5.294;2023-05-16T13:50:29;4.60;;;1.77;;
41817;SDS011;27493;51.730;5.294;2023-05-16T13:52:55;5.13;;;1.60;;
41817;SDS011;27493;51.730;5.294;2023-05-16T13:55:20;4.43;;;1.70;;
41817;SDS011;27493;51.730;5.294;2023-05-16T13:57:45;5.07;;;1.70;;
41817;SDS011;27493;51.730;5.294;2023-05-16T14:00:11;8.70;;;1.40;;
41817;SDS011;27493;51.730;5.294;2023-05-16T14:02:39;5.93;;;1.83;;
41817;SDS011;27493;51.730;5.294;2023-05-16T14:05:06;5.43;;;1.70;;
41817;SDS011;27493;51.730;5.294;2023-05-16T14:07:31;7.30;;;1.50;;
41817;SDS011;27493;51.730;5.294;2023-05-16T14:09:56;6.47;;;1.57;;
41817;SDS011;27493;51.730;5.294;2023-05-16T14:12:22;4.27;;;1.40;;
41817;SDS011;27493;51.730;5.294;2023-05-16T14:15:02;4.87;;;1.60;;
41817;SDS011;27493;51.730;5.294;2023-05-16T14:17:27;3.73;;;1.40;;
41817;SDS011;27493;51.730;5.294;2023-05-16T14:20:11;6.33;;;1.50;;
41817;SDS011;27493;51.730;5.294;2023-05-16T14:22:38;5.63;;;1.70;;
41817;SDS011;27493;51.730;5.294;2023-05-16T14:25:03;5.43;;;1.60;;
41817;SDS011;27493;51.730;5.294;2023-05-16T14:27:28;4.23;;;1.40;;
41817;SDS011;27493;51.730;5.294;2023-05-16T14:29:54;5.20;;;1.40;;
41817;SDS011;27493;51.730;5.294;2023-05-16T14:32:19;4.27;;;1.23;;
41817;SDS011;27493;51.730;5.294;2023-05-16T14:34:45;5.13;;;1.77;;
41817;SDS011;27493;51.730;5.294;2023-05-16T14:37:10;5.87;;;1.50;;
41817;SDS011;27493;51.730;5.294;2023-05-16T14:39:35;7.60;;;1.70;;
41817;SDS011;27493;51.730;5.294;2023-05-16T14:42:00;2.43;;;1.20;;
41817;SDS011;27493;51.730;5.294;2023-05-16T14:44:25;5.73;;;1.33;;
41817;SDS011;27493;51.730;5.294;2023-05-16T14:46:50;3.40;;;1.60;;
41817;SDS011;27493;51.730;5.294;2023-05-16T14:49:16;4.00;;;1.53;;
41817;SDS011;27493;51.730;5.294;2023-05-16T14:51:41;6.07;;;1.43;;